sensor_id;sensor_type;location;lat;lon;timestamp;temperature;humidity
15713;DHT22;7957;51.608;6.916;2022-11-25T00:01:03;6.70;99.90
15713;DHT22;7957;51.608;6.916;2022-11-25T00:03:31;6.70;99.90
15713;DHT22;7957;51.608;6.916;2022-11-25T00:06:11;6.80;99.90
15713;DHT22;7957;51.608;6.916;2022-11-25T00:08:38;6.70;99.90
15713;DHT22;7957;51.608;6.916;2022-11-25T00:11:06;6.70;99.90
15713;DHT22;7957;51.608;6.916;2022-11-25T00:13:33;6.70;99.90
15713;DHT22;7957;51.608;6.916;2022-11-25T00:16:01;6.70;99.90
15713;DHT22;7957;51.608;6.916;2022-11-25T00:18:28;6.70;99.90
15713;DHT22;7957;51.608;6.916;2022-11-25T00:20:55;6.80;99.90
15713;DHT22;7957;51.608;6.916;2022-11-25T00:23:24;6.80;99.90
15713;DHT22;7957;51.608;6.916;2022-11-25T00:25:51;6.80;99.90
15713;DHT22;7957;51.608;6.916;2022-11-25T00:28:17;6.80;99.90
15713;DHT22;7957;51.608;6.916;2022-11-25T00:30:44;6.80;99.90
15713;DHT22;7957;51.608;6.916;2022-11-25T00:33:11;6.80;99.90
15713;DHT22;7957;51.608;6.916;2022-11-25T00:35:38;6.80;99.90
15713;DHT22;7957;51.608;6.916;2022-11-25T00:38:05;6.70;99.90
15713;DHT22;7957;51.608;6.916;2022-11-25T00:40:33;6.80;99.90
15713;DHT22;7957;51.608;6.916;2022-11-25T00:43:00;6.80;99.90
15713;DHT22;7957;51.608;6.916;2022-11-25T00:45:44;6.80;99.90
15713;DHT22;7957;51.608;6.916;2022-11-25T00:48:11;6.80;99.90
15713;DHT22;7957;51.608;6.916;2022-11-25T00:50:38;6.80;99.90
15713;DHT22;7957;51.608;6.916;2022-11-25T00:53:05;6.80;99.90
15713;DHT22;7957;51.608;6.916;2022-11-25T00:55:34;6.80;99.90
15713;DHT22;7957;51.608;6.916;2022-11-25T00:58:14;6.80;99.90
15713;DHT22;7957;51.608;6.916;2022-11-25T01:00:41;6.80;99.90
15713;DHT22;7957;51.608;6.916;2022-11-25T01:03:10;6.80;99.90
15713;DHT22;7957;51.608;6.916;2022-11-25T01:05:36;6.80;99.90
15713;DHT22;7957;51.608;6.916;2022-11-25T01:08:03;6.80;99.90
15713;DHT22;7957;51.608;6.916;2022-11-25T01:10:30;6.80;99.90
15713;DHT22;7957;51.608;6.916;2022-11-25T01:12:59;6.80;99.90
15713;DHT22;7957;51.608;6.916;2022-11-25T01:15:25;6.80;99.90
15713;DHT22;7957;51.608;6.916;2022-11-25T01:17:52;6.90;99.90
15713;DHT22;7957;51.608;6.916;2022-11-25T01:20:19;6.90;99.90
15713;DHT22;7957;51.608;6.916;2022-11-25T01:22:46;6.90;99.90
15713;DHT22;7957;51.608;6.916;2022-11-25T01:25:13;6.80;99.90
15713;DHT22;7957;51.608;6.916;2022-11-25T01:27:57;6.90;99.90
15713;DHT22;7957;51.608;6.916;2022-11-25T01:30:24;6.80;99.90
15713;DHT22;7957;51.608;6.916;2022-11-25T01:32:51;6.90;99.90
15713;DHT22;7957;51.608;6.916;2022-11-25T01:35:18;6.90;99.90
15713;DHT22;7957;51.608;6.916;2022-11-25T01:37:45;6.90;99.90
15713;DHT22;7957;51.608;6.916;2022-11-25T01:40:12;6.90;99.90
15713;DHT22;7957;51.608;6.916;2022-11-25T01:42:42;6.90;99.90
15713;DHT22;7957;51.608;6.916;2022-11-25T01:45:33;6.90;99.90
15713;DHT22;7957;51.608;6.916;2022-11-25T01:48:04;6.90;99.90
15713;DHT22;7957;51.608;6.916;2022-11-25T01:50:35;6.90;99.90
15713;DHT22;7957;51.608;6.916;2022-11-25T01:53:04;6.90;99.90
15713;DHT22;7957;51.608;6.916;2022-11-25T01:55:35;6.90;99.90
15713;DHT22;7957;51.608;6.916;2022-11-25T01:58:06;6.90;99.90
15713;DHT22;7957;51.608;6.916;2022-11-25T02:00:35;6.90;99.90
15713;DHT22;7957;51.608;6.916;2022-11-25T02:03:03;6.90;99.90
15713;DHT22;7957;51.608;6.916;2022-11-25T02:05:36;6.90;99.90
15713;DHT22;7957;51.608;6.916;2022-11-25T02:08:05;6.90;99.90
15713;DHT22;7957;51.608;6.916;2022-11-25T02:10:34;7.00;99.90
15713;DHT22;7957;51.608;6.916;2022-11-25T02:13:01;7.00;99.90
15713;DHT22;7957;51.608;6.916;2022-11-25T02:15:30;6.90;99.90
15713;DHT22;7957;51.608;6.916;2022-11-25T02:18:00;7.00;99.90
15713;DHT22;7957;51.608;6.916;2022-11-25T02:20:28;7.00;99.90
15713;DHT22;7957;51.608;6.916;2022-11-25T02:22:59;7.00;99.90
15713;DHT22;7957;51.608;6.916;2022-11-25T02:25:31;7.00;99.90
15713;DHT22;7957;51.608;6.916;2022-11-25T02:28:02;7.00;99.90
15713;DHT22;7957;51.608;6.916;2022-11-25T02:30:29;7.00;99.90
15713;DHT22;7957;51.608;6.916;2022-11-25T02:32:57;7.00;99.90
15713;DHT22;7957;51.608;6.916;2022-11-25T02:35:30;7.00;99.90
15713;DHT22;7957;51.608;6.916;2022-11-25T02:38:01;7.10;99.90
15713;DHT22;7957;51.608;6.916;2022-11-25T02:40:31;7.10;99.90
15713;DHT22;7957;51.608;6.916;2022-11-25T02:42:59;7.10;99.90
15713;DHT22;7957;51.608;6.916;2022-11-25T02:45:35;7.20;99.90
15713;DHT22;7957;51.608;6.916;2022-11-25T02:48:04;7.10;99.90
15713;DHT22;7957;51.608;6.916;2022-11-25T02:50:32;7.20;99.90
15713;DHT22;7957;51.608;6.916;2022-11-25T02:52:58;7.20;99.90
15713;DHT22;7957;51.608;6.916;2022-11-25T02:55:25;7.20;99.90
15713;DHT22;7957;51.608;6.916;2022-11-25T02:57:54;7.30;99.90
15713;DHT22;7957;51.608;6.916;2022-11-25T03:00:21;7.20;99.90
15713;DHT22;7957;51.608;6.916;2022-11-25T03:02:51;7.30;99.90
15713;DHT22;7957;51.608;6.916;2022-11-25T03:05:19;7.30;99.90
15713;DHT22;7957;51.608;6.916;2022-11-25T03:07:46;7.30;99.90
15713;DHT22;7957;51.608;6.916;2022-11-25T03:10:13;7.30;99.90
15713;DHT22;7957;51.608;6.916;2022-11-25T03:12:39;7.30;99.90
15713;DHT22;7957;51.608;6.916;2022-11-25T03:15:09;7.30;99.90
15713;DHT22;7957;51.608;6.916;2022-11-25T03:17:36;7.30;99.90
15713;DHT22;7957;51.608;6.916;2022-11-25T03:20:03;7.40;99.90
15713;DHT22;7957;51.608;6.916;2022-11-25T03:22:30;7.30;99.90
15713;DHT22;7957;51.608;6.916;2022-11-25T03:24:57;7.40;99.90
15713;DHT22;7957;51.608;6.916;2022-11-25T03:27:24;7.40;99.90
15713;DHT22;7957;51.608;6.916;2022-11-25T03:29:51;7.40;99.90
15713;DHT22;7957;51.608;6.916;2022-11-25T03:32:19;7.40;99.90
15713;DHT22;7957;51.608;6.916;2022-11-25T03:34:46;7.40;99.90
15713;DHT22;7957;51.608;6.916;2022-11-25T03:37:14;7.40;99.90
15713;DHT22;7957;51.608;6.916;2022-11-25T03:39:41;7.40;99.90
15713;DHT22;7957;51.608;6.916;2022-11-25T03:42:08;7.50;99.90
15713;DHT22;7957;51.608;6.916;2022-11-25T03:44:35;7.50;99.90
15713;DHT22;7957;51.608;6.916;2022-11-25T03:47:02;7.50;99.90
15713;DHT22;7957;51.608;6.916;2022-11-25T03:49:30;7.50;99.90
15713;DHT22;7957;51.608;6.916;2022-11-25T03:51:57;7.50;99.90
15713;DHT22;7957;51.608;6.916;2022-11-25T03:54:24;7.50;99.90
15713;DHT22;7957;51.608;6.916;2022-11-25T03:56:51;7.50;99.90
15713;DHT22;7957;51.608;6.916;2022-11-25T03:59:17;7.60;99.90
15713;DHT22;7957;51.608;6.916;2022-11-25T04:01:44;7.60;99.90
15713;DHT22;7957;51.608;6.916;2022-11-25T04:04:12;7.60;99.90
15713;DHT22;7957;51.608;6.916;2022-11-25T04:06:40;7.60;99.90
15713;DHT22;7957;51.608;6.916;2022-11-25T04:09:08;7.60;99.90
15713;DHT22;7957;51.608;6.916;2022-11-25T04:11:36;7.60;99.90
15713;DHT22;7957;51.608;6.916;2022-11-25T04:14:20;7.60;99.90
15713;DHT22;7957;51.608;6.916;2022-11-25T04:16:47;7.60;99.90
15713;DHT22;7957;51.608;6.916;2022-11-25T04:19:14;7.60;99.90
15713;DHT22;7957;51.608;6.916;2022-11-25T04:21:43;7.60;99.90
15713;DHT22;7957;51.608;6.916;2022-11-25T04:24:10;7.60;99.90
15713;DHT22;7957;51.608;6.916;2022-11-25T04:26:37;7.60;99.90
15713;DHT22;7957;51.608;6.916;2022-11-25T04:29:04;7.60;99.90
15713;DHT22;7957;51.608;6.916;2022-11-25T04:31:31;7.60;99.90
15713;DHT22;7957;51.608;6.916;2022-11-25T04:33:58;7.60;99.90
15713;DHT22;7957;51.608;6.916;2022-11-25T04:36:25;7.60;99.90
15713;DHT22;7957;51.608;6.916;2022-11-25T04:38:53;7.60;99.90
15713;DHT22;7957;51.608;6.916;2022-11-25T04:41:20;7.70;99.90
15713;DHT22;7957;51.608;6.916;2022-11-25T04:43:47;7.60;99.90
15713;DHT22;7957;51.608;6.916;2022-11-25T04:46:16;7.70;99.90
15713;DHT22;7957;51.608;6.916;2022-11-25T04:48:43;7.70;99.90
15713;DHT22;7957;51.608;6.916;2022-11-25T04:51:10;7.60;99.90
15713;DHT22;7957;51.608;6.916;2022-11-25T04:53:37;7.70;99.90
15713;DHT22;7957;51.608;6.916;2022-11-25T04:56:06;7.70;99.90
15713;DHT22;7957;51.608;6.916;2022-11-25T04:58:33;7.70;99.90
15713;DHT22;7957;51.608;6.916;2022-11-25T05:01:17;7.70;99.90
15713;DHT22;7957;51.608;6.916;2022-11-25T05:03:44;7.70;99.90
15713;DHT22;7957;51.608;6.916;2022-11-25T05:06:14;7.70;99.90
15713;DHT22;7957;51.608;6.916;2022-11-25T05:08:41;7.70;99.90
15713;DHT22;7957;51.608;6.916;2022-11-25T05:11:09;7.70;99.90
15713;DHT22;7957;51.608;6.916;2022-11-25T05:13:36;7.70;99.90
15713;DHT22;7957;51.608;6.916;2022-11-25T05:16:03;7.60;99.90
15713;DHT22;7957;51.608;6.916;2022-11-25T05:18:30;7.60;99.90
15713;DHT22;7957;51.608;6.916;2022-11-25T05:21:00;7.60;99.90
15713;DHT22;7957;51.608;6.916;2022-11-25T05:23:27;7.70;99.90
15713;DHT22;7957;51.608;6.916;2022-11-25T05:25:58;7.70;99.90
15713;DHT22;7957;51.608;6.916;2022-11-25T05:28:26;7.70;99.90
15713;DHT22;7957;51.608;6.916;2022-11-25T05:30:53;7.70;99.90
15713;DHT22;7957;51.608;6.916;2022-11-25T05:33:20;7.70;99.90
15713;DHT22;7957;51.608;6.916;2022-11-25T05:35:53;7.70;99.90
15713;DHT22;7957;51.608;6.916;2022-11-25T05:38:20;7.70;99.90
15713;DHT22;7957;51.608;6.916;2022-11-25T05:40:47;7.70;99.90
15713;DHT22;7957;51.608;6.916;2022-11-25T05:43:14;7.70;99.90
15713;DHT22;7957;51.608;6.916;2022-11-25T05:45:42;7.70;99.90
15713;DHT22;7957;51.608;6.916;2022-11-25T05:48:09;7.70;99.90
15713;DHT22;7957;51.608;6.916;2022-11-25T05:50:36;7.70;99.90
15713;DHT22;7957;51.608;6.916;2022-11-25T05:53:03;7.70;99.90
15713;DHT22;7957;51.608;6.916;2022-11-25T05:55:31;7.70;99.90
15713;DHT22;7957;51.608;6.916;2022-11-25T05:57:58;7.70;99.90
15713;DHT22;7957;51.608;6.916;2022-11-25T06:00:25;7.70;99.90
15713;DHT22;7957;51.608;6.916;2022-11-25T06:02:53;7.70;99.90
15713;DHT22;7957;51.608;6.916;2022-11-25T06:05:20;7.70;99.90
15713;DHT22;7957;51.608;6.916;2022-11-25T06:07:47;7.70;99.90
15713;DHT22;7957;51.608;6.916;2022-11-25T06:10:15;7.70;99.90
15713;DHT22;7957;51.608;6.916;2022-11-25T06:12:41;7.70;99.90
15713;DHT22;7957;51.608;6.916;2022-11-25T06:15:09;7.70;99.90
15713;DHT22;7957;51.608;6.916;2022-11-25T06:17:36;7.70;99.90
15713;DHT22;7957;51.608;6.916;2022-11-25T06:20:06;7.70;99.90
15713;DHT22;7957;51.608;6.916;2022-11-25T06:22:33;7.60;99.90
15713;DHT22;7957;51.608;6.916;2022-11-25T06:25:00;7.70;99.90
15713;DHT22;7957;51.608;6.916;2022-11-25T06:27:27;7.60;99.90
15713;DHT22;7957;51.608;6.916;2022-11-25T06:29:55;7.70;99.90
15713;DHT22;7957;51.608;6.916;2022-11-25T06:32:22;7.70;99.90
15713;DHT22;7957;51.608;6.916;2022-11-25T06:34:49;7.70;99.90
15713;DHT22;7957;51.608;6.916;2022-11-25T06:37:17;7.70;99.90
15713;DHT22;7957;51.608;6.916;2022-11-25T06:39:44;7.60;99.90
15713;DHT22;7957;51.608;6.916;2022-11-25T06:42:12;7.60;99.90
15713;DHT22;7957;51.608;6.916;2022-11-25T06:44:39;7.60;99.90
15713;DHT22;7957;51.608;6.916;2022-11-25T06:47:05;7.60;99.90
15713;DHT22;7957;51.608;6.916;2022-11-25T06:49:32;7.60;99.90
15713;DHT22;7957;51.608;6.916;2022-11-25T06:51:59;7.60;99.90
15713;DHT22;7957;51.608;6.916;2022-11-25T06:54:28;7.60;99.90
15713;DHT22;7957;51.608;6.916;2022-11-25T06:56:54;7.60;99.90
15713;DHT22;7957;51.608;6.916;2022-11-25T06:59:22;7.50;99.90
15713;DHT22;7957;51.608;6.916;2022-11-25T07:01:49;7.50;99.90
15713;DHT22;7957;51.608;6.916;2022-11-25T07:04:16;7.50;99.90
15713;DHT22;7957;51.608;6.916;2022-11-25T07:06:42;7.50;99.90
15713;DHT22;7957;51.608;6.916;2022-11-25T07:09:09;7.50;99.90
15713;DHT22;7957;51.608;6.916;2022-11-25T07:11:39;7.50;99.90
15713;DHT22;7957;51.608;6.916;2022-11-25T07:14:08;7.50;99.90
15713;DHT22;7957;51.608;6.916;2022-11-25T07:16:37;7.50;99.90
15713;DHT22;7957;51.608;6.916;2022-11-25T07:19:04;7.50;99.90
15713;DHT22;7957;51.608;6.916;2022-11-25T07:21:33;7.50;99.90
15713;DHT22;7957;51.608;6.916;2022-11-25T07:24:02;7.50;99.90
15713;DHT22;7957;51.608;6.916;2022-11-25T07:26:31;7.50;99.90
15713;DHT22;7957;51.608;6.916;2022-11-25T07:29:01;7.50;99.90
15713;DHT22;7957;51.608;6.916;2022-11-25T07:31:29;7.60;99.90
15713;DHT22;7957;51.608;6.916;2022-11-25T07:33:58;7.60;99.90
15713;DHT22;7957;51.608;6.916;2022-11-25T07:36:26;7.60;99.90
15713;DHT22;7957;51.608;6.916;2022-11-25T07:38:54;7.60;99.90
15713;DHT22;7957;51.608;6.916;2022-11-25T07:41:22;7.60;99.90
15713;DHT22;7957;51.608;6.916;2022-11-25T07:43:52;7.60;99.90
15713;DHT22;7957;51.608;6.916;2022-11-25T07:46:23;7.60;99.90
15713;DHT22;7957;51.608;6.916;2022-11-25T07:48:51;7.60;99.90
15713;DHT22;7957;51.608;6.916;2022-11-25T07:51:21;7.50;99.90
15713;DHT22;7957;51.608;6.916;2022-11-25T07:53:49;7.60;99.90
15713;DHT22;7957;51.608;6.916;2022-11-25T07:56:17;7.60;99.90
15713;DHT22;7957;51.608;6.916;2022-11-25T07:58:44;7.60;99.90
15713;DHT22;7957;51.608;6.916;2022-11-25T08:01:13;7.60;99.90
15713;DHT22;7957;51.608;6.916;2022-11-25T08:03:42;7.60;99.90
15713;DHT22;7957;51.608;6.916;2022-11-25T08:06:10;7.60;99.90
15713;DHT22;7957;51.608;6.916;2022-11-25T08:08:38;7.60;99.90
15713;DHT22;7957;51.608;6.916;2022-11-25T08:11:06;7.60;99.90
15713;DHT22;7957;51.608;6.916;2022-11-25T08:13:33;7.60;99.90
15713;DHT22;7957;51.608;6.916;2022-11-25T08:16:01;7.60;99.90
15713;DHT22;7957;51.608;6.916;2022-11-25T08:18:28;7.60;99.90
15713;DHT22;7957;51.608;6.916;2022-11-25T08:20:59;7.70;99.90
15713;DHT22;7957;51.608;6.916;2022-11-25T08:23:26;7.70;99.90
15713;DHT22;7957;51.608;6.916;2022-11-25T08:25:53;7.70;99.90
15713;DHT22;7957;51.608;6.916;2022-11-25T08:28:20;7.70;99.90
15713;DHT22;7957;51.608;6.916;2022-11-25T08:30:47;7.70;99.90
15713;DHT22;7957;51.608;6.916;2022-11-25T08:33:14;7.70;99.90
15713;DHT22;7957;51.608;6.916;2022-11-25T08:35:41;7.70;99.90
15713;DHT22;7957;51.608;6.916;2022-11-25T08:38:10;7.80;99.90
15713;DHT22;7957;51.608;6.916;2022-11-25T08:40:43;7.80;99.90
15713;DHT22;7957;51.608;6.916;2022-11-25T08:43:11;7.80;99.90
15713;DHT22;7957;51.608;6.916;2022-11-25T08:45:38;7.80;99.90
15713;DHT22;7957;51.608;6.916;2022-11-25T08:48:05;7.80;99.90
15713;DHT22;7957;51.608;6.916;2022-11-25T08:50:33;7.90;99.90
15713;DHT22;7957;51.608;6.916;2022-11-25T08:53:00;8.00;99.90
15713;DHT22;7957;51.608;6.916;2022-11-25T08:55:28;8.00;99.90
15713;DHT22;7957;51.608;6.916;2022-11-25T08:57:57;8.10;99.90
15713;DHT22;7957;51.608;6.916;2022-11-25T09:00:24;8.10;99.90
15713;DHT22;7957;51.608;6.916;2022-11-25T09:02:51;8.10;99.90
15713;DHT22;7957;51.608;6.916;2022-11-25T09:05:18;8.10;99.90
15713;DHT22;7957;51.608;6.916;2022-11-25T09:07:45;8.10;99.90
15713;DHT22;7957;51.608;6.916;2022-11-25T09:10:14;8.10;99.90
15713;DHT22;7957;51.608;6.916;2022-11-25T09:12:42;8.10;99.90
15713;DHT22;7957;51.608;6.916;2022-11-25T09:15:10;8.10;99.90
15713;DHT22;7957;51.608;6.916;2022-11-25T09:17:37;8.00;99.90
15713;DHT22;7957;51.608;6.916;2022-11-25T09:20:05;8.00;99.90
15713;DHT22;7957;51.608;6.916;2022-11-25T09:22:32;8.00;99.90
15713;DHT22;7957;51.608;6.916;2022-11-25T09:24:59;8.00;99.90
15713;DHT22;7957;51.608;6.916;2022-11-25T09:27:26;8.00;99.90
15713;DHT22;7957;51.608;6.916;2022-11-25T09:29:54;8.00;99.90
15713;DHT22;7957;51.608;6.916;2022-11-25T09:32:21;8.00;99.90
15713;DHT22;7957;51.608;6.916;2022-11-25T09:34:48;8.00;99.90
15713;DHT22;7957;51.608;6.916;2022-11-25T09:37:15;8.00;99.90
15713;DHT22;7957;51.608;6.916;2022-11-25T09:39:42;8.00;99.90
15713;DHT22;7957;51.608;6.916;2022-11-25T09:42:22;8.10;99.90
15713;DHT22;7957;51.608;6.916;2022-11-25T09:45:24;8.10;99.90
15713;DHT22;7957;51.608;6.916;2022-11-25T09:48:24;8.10;99.90
15713;DHT22;7957;51.608;6.916;2022-11-25T09:51:05;8.10;99.90
15713;DHT22;7957;51.608;6.916;2022-11-25T09:53:42;8.10;99.90
15713;DHT22;7957;51.608;6.916;2022-11-25T09:56:16;8.10;99.90
15713;DHT22;7957;51.608;6.916;2022-11-25T09:58:48;8.10;99.90
15713;DHT22;7957;51.608;6.916;2022-11-25T10:01:20;8.20;99.90
15713;DHT22;7957;51.608;6.916;2022-11-25T10:03:51;8.20;99.90
15713;DHT22;7957;51.608;6.916;2022-11-25T10:06:21;8.20;99.90
15713;DHT22;7957;51.608;6.916;2022-11-25T10:08:50;8.20;99.90
15713;DHT22;7957;51.608;6.916;2022-11-25T10:11:27;8.20;99.90
15713;DHT22;7957;51.608;6.916;2022-11-25T10:13:58;8.20;99.90
15713;DHT22;7957;51.608;6.916;2022-11-25T10:16:34;8.30;99.90
15713;DHT22;7957;51.608;6.916;2022-11-25T10:19:11;8.30;99.90
15713;DHT22;7957;51.608;6.916;2022-11-25T10:21:41;8.40;99.90
15713;DHT22;7957;51.608;6.916;2022-11-25T10:24:12;8.40;99.90
15713;DHT22;7957;51.608;6.916;2022-11-25T10:26:42;8.50;99.90
15713;DHT22;7957;51.608;6.916;2022-11-25T10:29:28;8.50;99.90
15713;DHT22;7957;51.608;6.916;2022-11-25T10:32:09;8.60;99.90
15713;DHT22;7957;51.608;6.916;2022-11-25T10:34:39;8.70;99.90
15713;DHT22;7957;51.608;6.916;2022-11-25T10:37:12;8.70;99.90
15713;DHT22;7957;51.608;6.916;2022-11-25T10:39:41;8.80;99.90
15713;DHT22;7957;51.608;6.916;2022-11-25T10:42:14;8.80;99.90
15713;DHT22;7957;51.608;6.916;2022-11-25T10:44:44;8.80;99.90
15713;DHT22;7957;51.608;6.916;2022-11-25T10:47:34;8.80;99.90
15713;DHT22;7957;51.608;6.916;2022-11-25T10:50:24;8.80;99.90
15713;DHT22;7957;51.608;6.916;2022-11-25T10:52:56;8.70;99.90
15713;DHT22;7957;51.608;6.916;2022-11-25T10:55:26;8.80;99.90
15713;DHT22;7957;51.608;6.916;2022-11-25T10:57:54;8.70;99.90
15713;DHT22;7957;51.608;6.916;2022-11-25T11:00:30;8.70;99.90
15713;DHT22;7957;51.608;6.916;2022-11-25T11:03:10;8.70;99.90
15713;DHT22;7957;51.608;6.916;2022-11-25T11:05:43;8.70;99.90
15713;DHT22;7957;51.608;6.916;2022-11-25T11:08:19;8.60;99.90
15713;DHT22;7957;51.608;6.916;2022-11-25T11:11:07;8.60;99.90
15713;DHT22;7957;51.608;6.916;2022-11-25T11:13:35;8.60;99.90
15713;DHT22;7957;51.608;6.916;2022-11-25T11:16:02;8.60;99.90
15713;DHT22;7957;51.608;6.916;2022-11-25T11:18:39;8.60;99.90
15713;DHT22;7957;51.608;6.916;2022-11-25T11:21:24;8.50;99.90
15713;DHT22;7957;51.608;6.916;2022-11-25T11:23:54;8.60;99.90
15713;DHT22;7957;51.608;6.916;2022-11-25T11:26:23;8.60;99.90
15713;DHT22;7957;51.608;6.916;2022-11-25T11:28:58;8.50;99.90
15713;DHT22;7957;51.608;6.916;2022-11-25T11:31:28;8.50;99.90
15713;DHT22;7957;51.608;6.916;2022-11-25T11:34:05;8.60;99.90
15713;DHT22;7957;51.608;6.916;2022-11-25T11:36:45;8.60;99.90
15713;DHT22;7957;51.608;6.916;2022-11-25T11:39:24;8.60;99.90
15713;DHT22;7957;51.608;6.916;2022-11-25T11:41:57;8.60;99.90
15713;DHT22;7957;51.608;6.916;2022-11-25T11:44:33;8.60;99.90
15713;DHT22;7957;51.608;6.916;2022-11-25T11:47:13;8.60;99.90
15713;DHT22;7957;51.608;6.916;2022-11-25T11:50:06;8.60;99.90
15713;DHT22;7957;51.608;6.916;2022-11-25T11:52:49;8.60;99.90
15713;DHT22;7957;51.608;6.916;2022-11-25T11:55:32;8.60;99.90
15713;DHT22;7957;51.608;6.916;2022-11-25T11:58:07;8.60;99.90
15713;DHT22;7957;51.608;6.916;2022-11-25T12:00:41;8.60;99.90
15713;DHT22;7957;51.608;6.916;2022-11-25T12:03:14;8.60;99.90
15713;DHT22;7957;51.608;6.916;2022-11-25T12:05:44;8.60;99.90
15713;DHT22;7957;51.608;6.916;2022-11-25T12:08:15;8.70;99.90
15713;DHT22;7957;51.608;6.916;2022-11-25T12:10:47;8.60;99.90
15713;DHT22;7957;51.608;6.916;2022-11-25T12:13:20;8.70;99.90
15713;DHT22;7957;51.608;6.916;2022-11-25T12:15:56;8.70;99.90
15713;DHT22;7957;51.608;6.916;2022-11-25T12:18:39;8.70;99.90
15713;DHT22;7957;51.608;6.916;2022-11-25T12:21:11;8.70;99.90
15713;DHT22;7957;51.608;6.916;2022-11-25T12:23:43;8.70;99.90
15713;DHT22;7957;51.608;6.916;2022-11-25T12:26:20;8.80;99.90
15713;DHT22;7957;51.608;6.916;2022-11-25T12:28:52;8.80;99.90
15713;DHT22;7957;51.608;6.916;2022-11-25T12:31:23;8.80;99.90
15713;DHT22;7957;51.608;6.916;2022-11-25T12:34:00;8.80;99.90
15713;DHT22;7957;51.608;6.916;2022-11-25T12:36:33;8.90;99.90
15713;DHT22;7957;51.608;6.916;2022-11-25T12:39:03;8.90;99.90
15713;DHT22;7957;51.608;6.916;2022-11-25T12:41:39;8.90;99.90
15713;DHT22;7957;51.608;6.916;2022-11-25T12:44:13;8.90;99.90
15713;DHT22;7957;51.608;6.916;2022-11-25T12:46:44;9.00;99.90
15713;DHT22;7957;51.608;6.916;2022-11-25T12:49:18;9.30;99.90
15713;DHT22;7957;51.608;6.916;2022-11-25T12:52:01;9.30;99.90
15713;DHT22;7957;51.608;6.916;2022-11-25T12:54:45;9.20;99.90
15713;DHT22;7957;51.608;6.916;2022-11-25T12:57:29;9.20;99.90
15713;DHT22;7957;51.608;6.916;2022-11-25T13:00:05;9.20;99.90
15713;DHT22;7957;51.608;6.916;2022-11-25T13:02:56;9.20;99.90
15713;DHT22;7957;51.608;6.916;2022-11-25T13:08:29;9.20;99.90
15713;DHT22;7957;51.608;6.916;2022-11-25T13:11:21;9.30;99.90
15713;DHT22;7957;51.608;6.916;2022-11-25T13:13:57;9.30;99.90
15713;DHT22;7957;51.608;6.916;2022-11-25T13:16:28;9.30;99.90
15713;DHT22;7957;51.608;6.916;2022-11-25T13:18:55;9.30;99.90
15713;DHT22;7957;51.608;6.916;2022-11-25T13:21:23;9.30;99.90
15713;DHT22;7957;51.608;6.916;2022-11-25T13:23:54;9.30;99.90
15713;DHT22;7957;51.608;6.916;2022-11-25T13:26:46;9.30;99.90
15713;DHT22;7957;51.608;6.916;2022-11-25T13:32:38;9.40;99.90
15713;DHT22;7957;51.608;6.916;2022-11-25T13:35:34;9.40;99.90
15713;DHT22;7957;51.608;6.916;2022-11-25T13:40:57;9.40;99.90
15713;DHT22;7957;51.608;6.916;2022-11-25T13:43:24;9.40;99.90
15713;DHT22;7957;51.608;6.916;2022-11-25T13:45:52;9.40;99.90
15713;DHT22;7957;51.608;6.916;2022-11-25T13:48:21;9.40;99.90
15713;DHT22;7957;51.608;6.916;2022-11-25T13:50:50;9.40;99.90
15713;DHT22;7957;51.608;6.916;2022-11-25T13:53:20;9.40;99.90
15713;DHT22;7957;51.608;6.916;2022-11-25T13:55:48;9.40;99.90
15713;DHT22;7957;51.608;6.916;2022-11-25T13:58:21;9.40;99.90
15713;DHT22;7957;51.608;6.916;2022-11-25T14:01:19;9.40;99.90
15713;DHT22;7957;51.608;6.916;2022-11-25T14:03:57;9.40;99.90
15713;DHT22;7957;51.608;6.916;2022-11-25T14:09:37;9.50;99.90
15713;DHT22;7957;51.608;6.916;2022-11-25T14:12:29;9.40;99.90
15713;DHT22;7957;51.608;6.916;2022-11-25T14:15:18;9.40;99.90
15713;DHT22;7957;51.608;6.916;2022-11-25T14:18:07;9.40;99.90
15713;DHT22;7957;51.608;6.916;2022-11-25T14:20:43;9.40;99.90
15713;DHT22;7957;51.608;6.916;2022-11-25T14:26:09;9.30;99.90
15713;DHT22;7957;51.608;6.916;2022-11-25T14:28:42;9.20;99.90
15713;DHT22;7957;51.608;6.916;2022-11-25T14:31:14;9.20;99.90
15713;DHT22;7957;51.608;6.916;2022-11-25T14:33:46;9.20;99.90
15713;DHT22;7957;51.608;6.916;2022-11-25T14:36:18;9.20;99.90
15713;DHT22;7957;51.608;6.916;2022-11-25T14:38:51;9.20;99.90
15713;DHT22;7957;51.608;6.916;2022-11-25T14:41:22;9.20;99.90
15713;DHT22;7957;51.608;6.916;2022-11-25T14:43:54;9.20;99.90
15713;DHT22;7957;51.608;6.916;2022-11-25T14:46:25;9.20;99.90
15713;DHT22;7957;51.608;6.916;2022-11-25T14:48:54;9.20;99.90
15713;DHT22;7957;51.608;6.916;2022-11-25T14:51:21;9.20;99.90
15713;DHT22;7957;51.608;6.916;2022-11-25T14:53:50;9.20;99.90
15713;DHT22;7957;51.608;6.916;2022-11-25T14:56:22;9.20;99.90
15713;DHT22;7957;51.608;6.916;2022-11-25T14:58:52;9.10;99.90
15713;DHT22;7957;51.608;6.916;2022-11-25T15:01:22;9.10;99.90
15713;DHT22;7957;51.608;6.916;2022-11-25T15:04:01;9.10;99.90
15713;DHT22;7957;51.608;6.916;2022-11-25T15:06:32;9.10;99.90
15713;DHT22;7957;51.608;6.916;2022-11-25T15:08:59;9.00;99.90
15713;DHT22;7957;51.608;6.916;2022-11-25T15:11:29;9.00;99.90
15713;DHT22;7957;51.608;6.916;2022-11-25T15:13:59;9.10;99.90
15713;DHT22;7957;51.608;6.916;2022-11-25T15:16:31;9.10;99.90
15713;DHT22;7957;51.608;6.916;2022-11-25T15:19:02;9.00;99.90
15713;DHT22;7957;51.608;6.916;2022-11-25T15:21:31;9.00;99.90
15713;DHT22;7957;51.608;6.916;2022-11-25T15:23:59;9.00;99.90
15713;DHT22;7957;51.608;6.916;2022-11-25T15:26:28;8.90;99.90
15713;DHT22;7957;51.608;6.916;2022-11-25T15:28:57;8.90;99.90
15713;DHT22;7957;51.608;6.916;2022-11-25T15:31:26;8.80;99.90
15713;DHT22;7957;51.608;6.916;2022-11-25T15:33:56;8.80;99.90
15713;DHT22;7957;51.608;6.916;2022-11-25T15:36:25;8.80;99.90
15713;DHT22;7957;51.608;6.916;2022-11-25T15:38:53;8.70;99.90
15713;DHT22;7957;51.608;6.916;2022-11-25T15:41:29;8.60;99.90
15713;DHT22;7957;51.608;6.916;2022-11-25T15:43:59;8.60;99.90
15713;DHT22;7957;51.608;6.916;2022-11-25T15:46:27;8.60;99.90
15713;DHT22;7957;51.608;6.916;2022-11-25T15:48:56;8.50;99.90
15713;DHT22;7957;51.608;6.916;2022-11-25T15:51:36;8.50;99.90
15713;DHT22;7957;51.608;6.916;2022-11-25T15:54:06;8.50;99.90
15713;DHT22;7957;51.608;6.916;2022-11-25T15:56:44;8.60;99.90
15713;DHT22;7957;51.608;6.916;2022-11-25T15:59:40;8.60;99.90
15713;DHT22;7957;51.608;6.916;2022-11-25T16:05:31;8.50;99.90
15713;DHT22;7957;51.608;6.916;2022-11-25T16:10:49;8.40;99.90
15713;DHT22;7957;51.608;6.916;2022-11-25T16:13:38;8.40;99.90
15713;DHT22;7957;51.608;6.916;2022-11-25T16:21:58;8.50;99.90
15713;DHT22;7957;51.608;6.916;2022-11-25T16:24:35;8.50;99.90
15713;DHT22;7957;51.608;6.916;2022-11-25T16:27:10;8.50;99.90
15713;DHT22;7957;51.608;6.916;2022-11-25T16:29:48;8.50;99.90
15713;DHT22;7957;51.608;6.916;2022-11-25T16:32:17;8.50;99.90
15713;DHT22;7957;51.608;6.916;2022-11-25T16:34:44;8.50;99.90
15713;DHT22;7957;51.608;6.916;2022-11-25T16:37:11;8.50;99.90
15713;DHT22;7957;51.608;6.916;2022-11-25T16:40:04;8.50;99.90
15713;DHT22;7957;51.608;6.916;2022-11-25T16:42:31;8.50;99.90
15713;DHT22;7957;51.608;6.916;2022-11-25T16:44:59;8.50;99.90
15713;DHT22;7957;51.608;6.916;2022-11-25T16:47:26;8.50;99.90
15713;DHT22;7957;51.608;6.916;2022-11-25T16:49:53;8.50;99.90
15713;DHT22;7957;51.608;6.916;2022-11-25T16:52:20;8.50;99.90